sensor_id;sensor_type;location;lat;lon;timestamp;pressure;altitude;pressure_sealevel;temperature;humidity
48892;BME280;50130;52.150;5.236;2023-02-11T00:01:51;103199.0;;;8.6;88.71
48892;BME280;50130;52.150;5.236;2023-02-11T00:03:27;103201.0;;;8.47;89.25
48892;BME280;50130;52.150;5.236;2023-02-11T00:05:04;103195.0;;;8.58;88.97
48892;BME280;50130;52.150;5.236;2023-02-11T00:08:17;103191.00000000001;;;8.39;89.69
48892;BME280;50130;52.150;5.236;2023-02-11T00:09:53;103188.00000000001;;;8.51;89.33
48892;BME280;50130;52.150;5.236;2023-02-11T00:11:30;103190.00000000001;;;8.41;89.63
48892;BME280;50130;52.150;5.236;2023-02-11T00:14:42;103189.00000000001;;;8.48;89.61
48892;BME280;50130;52.150;5.236;2023-02-11T00:16:20;103183.99999999999;;;8.63;88.82
48892;BME280;50130;52.150;5.236;2023-02-11T00:17:56;103189.00000000001;;;8.47;89.17
48892;BME280;50130;52.150;5.236;2023-02-11T00:19:32;103186.99999999999;;;8.48;89.39
48892;BME280;50130;52.150;5.236;2023-02-11T00:22:47;103181.0;;;8.6;88.86
48892;BME280;50130;52.150;5.236;2023-02-11T00:24:24;103173.0;;;8.57;89.12
48892;BME280;50130;52.150;5.236;2023-02-11T00:26:00;103178.0;;;8.53;89.21
48892;BME280;50130;52.150;5.236;2023-02-11T00:29:14;103190.00000000001;;;8.52;89.41
48892;BME280;50130;52.150;5.236;2023-02-11T00:30:53;103190.00000000001;;;8.58;89.05
48892;BME280;50130;52.150;5.236;2023-02-11T00:32:30;103188.00000000001;;;8.58;89.08
48892;BME280;50130;52.150;5.236;2023-02-11T00:35:42;103180.0;;;8.57;88.88
48892;BME280;50130;52.150;5.236;2023-02-11T00:37:18;103182.0;;;8.51;89.04
48892;BME280;50130;52.150;5.236;2023-02-11T00:38:56;103189.00000000001;;;8.48;89.51
48892;BME280;50130;52.150;5.236;2023-02-11T00:40:32;103191.00000000001;;;8.56;89.13
48892;BME280;50130;52.150;5.236;2023-02-11T00:43:49;103198.0;;;8.49;89.55
48892;BME280;50130;52.150;5.236;2023-02-11T00:45:26;103203.0;;;8.43;89.9
48892;BME280;50130;52.150;5.236;2023-02-11T00:47:04;103202.0;;;8.49;89.55
48892;BME280;50130;52.150;5.236;2023-02-11T00:50:17;103203.0;;;8.5;89.54
48892;BME280;50130;52.150;5.236;2023-02-11T00:51:54;103202.0;;;8.52;89.38
48892;BME280;50130;52.150;5.236;2023-02-11T00:53:31;103198.0;;;8.39;89.87
48892;BME280;50130;52.150;5.236;2023-02-11T00:55:08;103191.00000000001;;;8.5;89.71
48892;BME280;50130;52.150;5.236;2023-02-11T00:58:21;103191.00000000001;;;8.33;90.0
48892;BME280;50130;52.150;5.236;2023-02-11T00:59:57;103183.99999999999;;;8.27;90.54
48892;BME280;50130;52.150;5.236;2023-02-11T01:01:34;103177.0;;;8.19;91.08
48892;BME280;50130;52.150;5.236;2023-02-11T01:04:47;103170.0;;;8.27;90.76
48892;BME280;50130;52.150;5.236;2023-02-11T01:06:23;103173.0;;;8.31;90.76
48892;BME280;50130;52.150;5.236;2023-02-11T01:07:59;103172.0;;;8.38;90.56
48892;BME280;50130;52.150;5.236;2023-02-11T01:11:16;103167.0;;;8.36;90.11
48892;BME280;50130;52.150;5.236;2023-02-11T01:12:53;103170.0;;;8.32;90.27
48892;BME280;50130;52.150;5.236;2023-02-11T01:14:30;103172.0;;;8.35;90.46
48892;BME280;50130;52.150;5.236;2023-02-11T01:16:07;103173.0;;;8.32;90.29
48892;BME280;50130;52.150;5.236;2023-02-11T01:19:21;103176.0;;;8.18;90.86
48892;BME280;50130;52.150;5.236;2023-02-11T01:20:57;103167.0;;;8.2;91.24
48892;BME280;50130;52.150;5.236;2023-02-11T01:22:36;103149.0;;;8.18;91.25
48892;BME280;50130;52.150;5.236;2023-02-11T01:25:49;103145.0;;;8.14;91.38
48892;BME280;50130;52.150;5.236;2023-02-11T01:27:26;103149.0;;;8.11;91.73
48892;BME280;50130;52.150;5.236;2023-02-11T01:29:02;103142.0;;;8.08;91.77
48892;BME280;50130;52.150;5.236;2023-02-11T01:32:14;103152.0;;;8.09;91.85
48892;BME280;50130;52.150;5.236;2023-02-11T01:33:50;103158.99999999999;;;8.06;91.92
48892;BME280;50130;52.150;5.236;2023-02-11T01:35:27;103168.0;;;8.11;92.16
48892;BME280;50130;52.150;5.236;2023-02-11T01:37:03;103177.0;;;8.03;92.3
48892;BME280;50130;52.150;5.236;2023-02-11T01:40:16;103178.0;;;7.94;92.19
48892;BME280;50130;52.150;5.236;2023-02-11T01:41:53;103180.0;;;7.91;92.79
48892;BME280;50130;52.150;5.236;2023-02-11T01:43:32;103181.0;;;7.92;92.8
48892;BME280;50130;52.150;5.236;2023-02-11T01:48:46;103170.0;;;7.85;92.91
48892;BME280;50130;52.150;5.236;2023-02-11T01:50:25;103158.99999999999;;;7.9;92.78
48892;BME280;50130;52.150;5.236;2023-02-11T01:52:04;103159.99999999999;;;7.84;92.48
48892;BME280;50130;52.150;5.236;2023-02-11T01:57:58;103177.0;;;7.78;92.56
48892;BME280;50130;52.150;5.236;2023-02-11T02:01:26;103174.0;;;7.84;92.31
48892;BME280;50130;52.150;5.236;2023-02-11T02:03:09;103179.0;;;7.94;91.9
48892;BME280;50130;52.150;5.236;2023-02-11T02:04:52;103176.0;;;7.81;92.28
48892;BME280;50130;52.150;5.236;2023-02-11T02:06:42;103182.0;;;7.62;92.58
48892;BME280;50130;52.150;5.236;2023-02-11T02:08:28;103184.99999999999;;;7.66;92.57
48892;BME280;50130;52.150;5.236;2023-02-11T02:12:02;103176.0;;;7.64;92.3
48892;BME280;50130;52.150;5.236;2023-02-11T02:13:39;103178.0;;;7.56;92.68
48892;BME280;50130;52.150;5.236;2023-02-11T02:15:21;103172.0;;;7.47;92.8
48892;BME280;50130;52.150;5.236;2023-02-11T02:17:00;103170.0;;;7.53;92.78
48892;BME280;50130;52.150;5.236;2023-02-11T02:22:05;103168.0;;;7.57;92.73
48892;BME280;50130;52.150;5.236;2023-02-11T02:23:25;103167.0;;;7.37;92.9
48892;BME280;50130;52.150;5.236;2023-02-11T02:25:17;103167.0;;;7.39;92.84
48892;BME280;50130;52.150;5.236;2023-02-11T02:33:05;103165.00000000001;;;7.39;93.09
48892;BME280;50130;52.150;5.236;2023-02-11T02:35:03;103164.00000000001;;;7.35;93.25
48892;BME280;50130;52.150;5.236;2023-02-11T02:36:53;103156.0;;;7.32;93.26
48892;BME280;50130;52.150;5.236;2023-02-11T02:38:37;103156.0;;;7.25;93.04
48892;BME280;50130;52.150;5.236;2023-02-11T02:40:20;103151.0;;;7.15;93.54
48892;BME280;50130;52.150;5.236;2023-02-11T02:41:58;103149.0;;;7.15;94.03
48892;BME280;50130;52.150;5.236;2023-02-11T02:45:17;103144.0;;;7.35;93.58
48892;BME280;50130;52.150;5.236;2023-02-11T02:46:53;103146.0;;;7.25;93.52
48892;BME280;50130;52.150;5.236;2023-02-11T02:48:32;103146.0;;;7.3;93.68
48892;BME280;50130;52.150;5.236;2023-02-11T02:50:10;103154.0;;;7.24;93.89
48892;BME280;50130;52.150;5.236;2023-02-11T02:54:20;103158.99999999999;;;7.21;93.99
48892;BME280;50130;52.150;5.236;2023-02-11T02:56:05;103174.0;;;7.27;94.42
48892;BME280;50130;52.150;5.236;2023-02-11T02:58:02;103165.00000000001;;;7.33;94.21
48892;BME280;50130;52.150;5.236;2023-02-11T02:59:52;103163.00000000001;;;7.27;94.21
48892;BME280;50130;52.150;5.236;2023-02-11T03:01:44;103161.99999999999;;;7.17;94.26
48892;BME280;50130;52.150;5.236;2023-02-11T03:03:28;103156.0;;;7.26;93.95
48892;BME280;50130;52.150;5.236;2023-02-11T03:05:16;103152.0;;;7.35;93.97
48892;BME280;50130;52.150;5.236;2023-02-11T03:07:01;103155.0;;;7.35;94.5
48892;BME280;50130;52.150;5.236;2023-02-11T03:10:26;103151.0;;;7.24;95.36
48892;BME280;50130;52.150;5.236;2023-02-11T03:12:05;103157.0;;;7.48;94.91
48892;BME280;50130;52.150;5.236;2023-02-11T03:13:43;103150.0;;;7.53;94.23
48892;BME280;50130;52.150;5.236;2023-02-11T03:15:24;103146.0;;;7.57;94.14
48892;BME280;50130;52.150;5.236;2023-02-11T03:18:45;103143.0;;;7.54;94.23
48892;BME280;50130;52.150;5.236;2023-02-11T03:20:29;103141.00000000001;;;7.5;94.44
48892;BME280;50130;52.150;5.236;2023-02-11T03:22:12;103139.00000000001;;;7.5;94.39
48892;BME280;50130;52.150;5.236;2023-02-11T03:27:19;103122.0;;;7.7;93.9
48892;BME280;50130;52.150;5.236;2023-02-11T03:29:02;103123.0;;;7.78;93.79
48892;BME280;50130;52.150;5.236;2023-02-11T03:30:46;103119.0;;;7.75;93.7
48892;BME280;50130;52.150;5.236;2023-02-11T03:32:31;103118.0;;;7.71;93.51
48892;BME280;50130;52.150;5.236;2023-02-11T03:34:15;103122.0;;;7.47;94.66
48892;BME280;50130;52.150;5.236;2023-02-11T03:37:38;103117.0;;;7.56;94.62
48892;BME280;50130;52.150;5.236;2023-02-11T03:39:20;103121.0;;;7.71;93.86
48892;BME280;50130;52.150;5.236;2023-02-11T03:41:01;103126.0;;;7.65;94.0
48892;BME280;50130;52.150;5.236;2023-02-11T03:42:42;103132.0;;;7.6;94.71
48892;BME280;50130;52.150;5.236;2023-02-11T03:46:02;103125.0;;;7.73;94.44
48892;BME280;50130;52.150;5.236;2023-02-11T03:47:42;103122.0;;;7.53;94.86
48892;BME280;50130;52.150;5.236;2023-02-11T03:49:24;103109.99999999999;;;7.63;94.93
48892;BME280;50130;52.150;5.236;2023-02-11T03:51:06;103104.0;;;7.69;94.74
48892;BME280;50130;52.150;5.236;2023-02-11T03:54:26;103105.0;;;7.71;94.52
48892;BME280;50130;52.150;5.236;2023-02-11T03:56:08;103108.0;;;7.46;95.06
48892;BME280;50130;52.150;5.236;2023-02-11T03:57:46;103100.0;;;7.59;95.07
48892;BME280;50130;52.150;5.236;2023-02-11T03:59:24;103104.0;;;7.59;94.96
48892;BME280;50130;52.150;5.236;2023-02-11T04:02:41;103103.0;;;7.53;95.08
48892;BME280;50130;52.150;5.236;2023-02-11T04:04:19;103106.0;;;7.47;95.4
48892;BME280;50130;52.150;5.236;2023-02-11T04:05:55;103117.0;;;7.66;94.69
48892;BME280;50130;52.150;5.236;2023-02-11T04:09:08;103115.00000000001;;;7.64;94.54
48892;BME280;50130;52.150;5.236;2023-02-11T04:10:44;103116.00000000001;;;7.59;95.2
48892;BME280;50130;52.150;5.236;2023-02-11T04:12:20;103115.00000000001;;;7.54;95.26
48892;BME280;50130;52.150;5.236;2023-02-11T04:13:56;103121.0;;;7.74;94.76
48892;BME280;50130;52.150;5.236;2023-02-11T04:17:10;103126.0;;;7.66;95.21
48892;BME280;50130;52.150;5.236;2023-02-11T04:18:46;103119.0;;;7.58;95.6
48892;BME280;50130;52.150;5.236;2023-02-11T04:20:22;103120.0;;;7.67;95.2
48892;BME280;50130;52.150;5.236;2023-02-11T04:23:36;103116.00000000001;;;7.62;95.52
48892;BME280;50130;52.150;5.236;2023-02-11T04:25:13;103120.0;;;7.66;95.24
48892;BME280;50130;52.150;5.236;2023-02-11T04:26:49;103114.00000000001;;;7.69;95.23
48892;BME280;50130;52.150;5.236;2023-02-11T04:30:06;103118.0;;;7.83;94.92
48892;BME280;50130;52.150;5.236;2023-02-11T04:31:45;103125.0;;;7.61;95.76
48892;BME280;50130;52.150;5.236;2023-02-11T04:33:22;103133.0;;;7.61;96.5
48892;BME280;50130;52.150;5.236;2023-02-11T04:34:59;103136.99999999999;;;7.65;96.3
48892;BME280;50130;52.150;5.236;2023-02-11T04:38:11;103133.0;;;7.62;96.6
48892;BME280;50130;52.150;5.236;2023-02-11T04:39:48;103139.00000000001;;;7.68;96.62
48892;BME280;50130;52.150;5.236;2023-02-11T04:41:24;103131.0;;;7.73;96.25
48892;BME280;50130;52.150;5.236;2023-02-11T04:44:37;103133.0;;;7.72;95.71
48892;BME280;50130;52.150;5.236;2023-02-11T04:46:13;103129.0;;;7.81;95.51
48892;BME280;50130;52.150;5.236;2023-02-11T04:47:49;103125.0;;;7.88;95.08
48892;BME280;50130;52.150;5.236;2023-02-11T04:49:25;103139.00000000001;;;7.81;95.73
48892;BME280;50130;52.150;5.236;2023-02-11T04:52:38;103141.00000000001;;;7.77;95.83
48892;BME280;50130;52.150;5.236;2023-02-11T04:54:15;103141.00000000001;;;7.77;96.09
48892;BME280;50130;52.150;5.236;2023-02-11T04:55:52;103134.99999999999;;;7.89;95.48
48892;BME280;50130;52.150;5.236;2023-02-11T04:59:04;103139.00000000001;;;7.83;95.74
48892;BME280;50130;52.150;5.236;2023-02-11T05:00:42;103139.00000000001;;;7.92;95.35
48892;BME280;50130;52.150;5.236;2023-02-11T05:02:18;103136.99999999999;;;7.83;95.86
48892;BME280;50130;52.150;5.236;2023-02-11T05:05:32;103140.00000000001;;;7.82;95.86
48892;BME280;50130;52.150;5.236;2023-02-11T05:07:08;103138.00000000001;;;7.84;95.89
48892;BME280;50130;52.150;5.236;2023-02-11T05:08:44;103142.0;;;7.78;96.03
48892;BME280;50130;52.150;5.236;2023-02-11T05:10:20;103136.99999999999;;;7.8;96.16
48892;BME280;50130;52.150;5.236;2023-02-11T05:13:33;103138.00000000001;;;7.84;96.08
48892;BME280;50130;52.150;5.236;2023-02-11T05:15:09;103126.0;;;7.84;96.12
48892;BME280;50130;52.150;5.236;2023-02-11T05:16:45;103134.99999999999;;;7.86;96.0
48892;BME280;50130;52.150;5.236;2023-02-11T05:19:58;103132.0;;;7.86;95.76
48892;BME280;50130;52.150;5.236;2023-02-11T05:21:34;103133.99999999999;;;7.78;96.41
48892;BME280;50130;52.150;5.236;2023-02-11T05:23:10;103133.0;;;7.87;96.32
48892;BME280;50130;52.150;5.236;2023-02-11T05:26:23;103134.99999999999;;;7.97;95.97
48892;BME280;50130;52.150;5.236;2023-02-11T05:28:01;103134.99999999999;;;7.85;96.36
48892;BME280;50130;52.150;5.236;2023-02-11T05:29:37;103138.00000000001;;;7.98;96.08
48892;BME280;50130;52.150;5.236;2023-02-11T05:31:13;103141.00000000001;;;8.1;95.55
48892;BME280;50130;52.150;5.236;2023-02-11T05:34:26;103139.00000000001;;;7.92;96.24
48892;BME280;50130;52.150;5.236;2023-02-11T05:36:06;103146.0;;;8.02;95.94
48892;BME280;50130;52.150;5.236;2023-02-11T05:37:43;103143.0;;;7.96;96.09
48892;BME280;50130;52.150;5.236;2023-02-11T05:42:32;103140.00000000001;;;8.03;96.03
48892;BME280;50130;52.150;5.236;2023-02-11T05:44:09;103131.0;;;8.01;96.28
48892;BME280;50130;52.150;5.236;2023-02-11T05:47:21;103134.99999999999;;;8.11;95.79
48892;BME280;50130;52.150;5.236;2023-02-11T05:48:57;103133.99999999999;;;8.14;95.74
48892;BME280;50130;52.150;5.236;2023-02-11T05:50:33;103130.0;;;8.08;95.82
48892;BME280;50130;52.150;5.236;2023-02-11T05:52:09;103129.0;;;7.98;96.4
48892;BME280;50130;52.150;5.236;2023-02-11T05:55:23;103132.0;;;7.91;96.54
48892;BME280;50130;52.150;5.236;2023-02-11T05:56:59;103126.0;;;8.17;96.08
48892;BME280;50130;52.150;5.236;2023-02-11T05:58:35;103136.99999999999;;;8.18;95.77
48892;BME280;50130;52.150;5.236;2023-02-11T06:01:50;103138.00000000001;;;8.18;95.62
48892;BME280;50130;52.150;5.236;2023-02-11T06:03:26;103143.0;;;8.16;95.83
48892;BME280;50130;52.150;5.236;2023-02-11T06:05:03;103147.0;;;8.03;96.19
48892;BME280;50130;52.150;5.236;2023-02-11T06:08:15;103141.00000000001;;;8.08;96.58
48892;BME280;50130;52.150;5.236;2023-02-11T06:09:51;103141.00000000001;;;8.02;96.79
48892;BME280;50130;52.150;5.236;2023-02-11T06:11:27;103142.0;;;8.02;97.11
48892;BME280;50130;52.150;5.236;2023-02-11T06:13:03;103146.0;;;8.1;96.47
48892;BME280;50130;52.150;5.236;2023-02-11T06:16:16;103149.0;;;8.02;96.9
48892;BME280;50130;52.150;5.236;2023-02-11T06:17:52;103153.0;;;8.06;97.15
48892;BME280;50130;52.150;5.236;2023-02-11T06:19:28;103150.0;;;8.16;96.6
48892;BME280;50130;52.150;5.236;2023-02-11T06:22:43;103153.0;;;8.02;97.25
48892;BME280;50130;52.150;5.236;2023-02-11T06:24:19;103155.0;;;8.25;96.53
48892;BME280;50130;52.150;5.236;2023-02-11T06:26:00;103155.0;;;8.26;96.45
48892;BME280;50130;52.150;5.236;2023-02-11T06:29:15;103148.0;;;8.23;96.77
48892;BME280;50130;52.150;5.236;2023-02-11T06:30:50;103149.0;;;8.26;96.62
48892;BME280;50130;52.150;5.236;2023-02-11T06:32:27;103147.0;;;8.11;97.06
48892;BME280;50130;52.150;5.236;2023-02-11T06:34:04;103149.0;;;8.2;96.81
48892;BME280;50130;52.150;5.236;2023-02-11T06:37:16;103153.0;;;8.18;96.97
48892;BME280;50130;52.150;5.236;2023-02-11T06:38:52;103152.0;;;8.28;96.45
48892;BME280;50130;52.150;5.236;2023-02-11T06:40:29;103154.0;;;8.2;96.9
48892;BME280;50130;52.150;5.236;2023-02-11T06:43:42;103149.0;;;8.11;97.31
48892;BME280;50130;52.150;5.236;2023-02-11T06:45:19;103151.0;;;8.3;96.69
48892;BME280;50130;52.150;5.236;2023-02-11T06:46:56;103158.0;;;8.25;96.31
48892;BME280;50130;52.150;5.236;2023-02-11T06:50:11;103159.99999999999;;;8.14;96.92
48892;BME280;50130;52.150;5.236;2023-02-11T06:51:49;103152.0;;;8.28;96.67
48892;BME280;50130;52.150;5.236;2023-02-11T06:53:25;103152.0;;;8.19;96.94
48892;BME280;50130;52.150;5.236;2023-02-11T06:55:02;103144.0;;;8.4;96.29
48892;BME280;50130;52.150;5.236;2023-02-11T06:58:16;103138.00000000001;;;8.32;96.43
48892;BME280;50130;52.150;5.236;2023-02-11T06:59:52;103140.00000000001;;;8.35;96.44
48892;BME280;50130;52.150;5.236;2023-02-11T07:01:28;103141.00000000001;;;8.39;96.32
48892;BME280;50130;52.150;5.236;2023-02-11T07:04:41;103142.0;;;8.26;96.69
48892;BME280;50130;52.150;5.236;2023-02-11T07:06:19;103149.0;;;8.18;97.04
48892;BME280;50130;52.150;5.236;2023-02-11T07:07:56;103150.0;;;8.34;97.19
48892;BME280;50130;52.150;5.236;2023-02-11T07:09:32;103156.0;;;8.22;97.4
48892;BME280;50130;52.150;5.236;2023-02-11T07:12:47;103159.99999999999;;;8.16;97.56
48892;BME280;50130;52.150;5.236;2023-02-11T07:14:23;103159.99999999999;;;8.31;97.04
48892;BME280;50130;52.150;5.236;2023-02-11T07:16:03;103158.99999999999;;;8.24;97.33
48892;BME280;50130;52.150;5.236;2023-02-11T07:19:18;103174.0;;;8.31;97.38
48892;BME280;50130;52.150;5.236;2023-02-11T07:20:53;103173.0;;;8.32;97.07
48892;BME280;50130;52.150;5.236;2023-02-11T07:22:30;103175.0;;;8.34;96.85
48892;BME280;50130;52.150;5.236;2023-02-11T07:25:45;103175.0;;;8.42;96.93
48892;BME280;50130;52.150;5.236;2023-02-11T07:27:21;103174.0;;;8.39;96.71
48892;BME280;50130;52.150;5.236;2023-02-11T07:28:57;103173.0;;;8.42;96.48
48892;BME280;50130;52.150;5.236;2023-02-11T07:30:33;103175.0;;;8.4;97.1
48892;BME280;50130;52.150;5.236;2023-02-11T07:33:47;103181.0;;;8.39;96.95
48892;BME280;50130;52.150;5.236;2023-02-11T07:35:24;103182.0;;;8.44;96.35
48892;BME280;50130;52.150;5.236;2023-02-11T07:37:00;103183.0;;;8.5;96.64
48892;BME280;50130;52.150;5.236;2023-02-11T07:40:14;103191.00000000001;;;8.56;96.63
48892;BME280;50130;52.150;5.236;2023-02-11T07:41:50;103183.99999999999;;;8.58;96.5
48892;BME280;50130;52.150;5.236;2023-02-11T07:43:27;103190.00000000001;;;8.5;96.24
48892;BME280;50130;52.150;5.236;2023-02-11T07:46:43;103195.0;;;8.45;96.7
48892;BME280;50130;52.150;5.236;2023-02-11T07:48:19;103197.0;;;8.41;97.05
48892;BME280;50130;52.150;5.236;2023-02-11T07:49:55;103199.0;;;8.35;97.0
48892;BME280;50130;52.150;5.236;2023-02-11T07:51:32;103195.0;;;8.38;96.85
48892;BME280;50130;52.150;5.236;2023-02-11T07:54:44;103194.0;;;8.24;97.28
48892;BME280;50130;52.150;5.236;2023-02-11T07:56:22;103193.0;;;8.3;97.61
48892;BME280;50130;52.150;5.236;2023-02-11T07:57:59;103193.0;;;8.26;97.7
48892;BME280;50130;52.150;5.236;2023-02-11T08:01:14;103192.0;;;8.38;97.39
48892;BME280;50130;52.150;5.236;2023-02-11T08:02:52;103192.0;;;8.25;97.76
48892;BME280;50130;52.150;5.236;2023-02-11T08:04:28;103192.0;;;8.31;97.82
48892;BME280;50130;52.150;5.236;2023-02-11T08:06:06;103192.0;;;8.33;97.94
48892;BME280;50130;52.150;5.236;2023-02-11T08:09:19;103200.0;;;8.4;97.52
48892;BME280;50130;52.150;5.236;2023-02-11T08:10:55;103199.0;;;8.53;96.87
48892;BME280;50130;52.150;5.236;2023-02-11T08:12:31;103203.0;;;8.56;96.77
48892;BME280;50130;52.150;5.236;2023-02-11T08:15:45;103206.0;;;8.52;96.99
48892;BME280;50130;52.150;5.236;2023-02-11T08:17:21;103206.0;;;8.55;97.17
48892;BME280;50130;52.150;5.236;2023-02-11T08:18:59;103200.0;;;8.64;96.87
48892;BME280;50130;52.150;5.236;2023-02-11T08:22:13;103203.0;;;8.61;97.01
48892;BME280;50130;52.150;5.236;2023-02-11T08:23:49;103204.0;;;8.61;96.97
48892;BME280;50130;52.150;5.236;2023-02-11T08:25:26;103200.0;;;8.78;96.51
48892;BME280;50130;52.150;5.236;2023-02-11T08:27:02;103202.0;;;8.82;96.12
48892;BME280;50130;52.150;5.236;2023-02-11T08:30:18;103203.0;;;8.68;96.54
48892;BME280;50130;52.150;5.236;2023-02-11T08:31:54;103207.0;;;8.68;96.79
48892;BME280;50130;52.150;5.236;2023-02-11T08:33:30;103206.0;;;8.78;96.5
48892;BME280;50130;52.150;5.236;2023-02-11T08:36:45;103208.0;;;8.83;95.9
48892;BME280;50130;52.150;5.236;2023-02-11T08:38:21;103213.00000000001;;;8.74;96.52
48892;BME280;50130;52.150;5.236;2023-02-11T08:39:57;103217.0;;;8.8;96.62
48892;BME280;50130;52.150;5.236;2023-02-11T08:43:10;103219.0;;;8.84;96.31
48892;BME280;50130;52.150;5.236;2023-02-11T08:44:46;103224.0;;;8.75;96.53
48892;BME280;50130;52.150;5.236;2023-02-11T08:46:23;103224.0;;;8.89;96.24
48892;BME280;50130;52.150;5.236;2023-02-11T08:48:00;103222.0;;;8.93;95.73
48892;BME280;50130;52.150;5.236;2023-02-11T08:51:14;103225.0;;;8.73;96.72
48892;BME280;50130;52.150;5.236;2023-02-11T08:52:52;103226.0;;;8.98;96.37
48892;BME280;50130;52.150;5.236;2023-02-11T08:54:29;103225.0;;;8.93;96.53
48892;BME280;50130;52.150;5.236;2023-02-11T08:57:45;103227.0;;;8.84;96.7
48892;BME280;50130;52.150;5.236;2023-02-11T08:59:21;103227.0;;;8.89;97.28
48892;BME280;50130;52.150;5.236;2023-02-11T09:00:58;103227.0;;;8.91;97.09
48892;BME280;50130;52.150;5.236;2023-02-11T09:02:34;103227.0;;;8.94;97.17
48892;BME280;50130;52.150;5.236;2023-02-11T09:05:48;103231.0;;;8.92;97.36
48892;BME280;50130;52.150;5.236;2023-02-11T09:07:25;103228.0;;;8.94;97.33
48892;BME280;50130;52.150;5.236;2023-02-11T09:09:03;103233.0;;;9.02;97.1
48892;BME280;50130;52.150;5.236;2023-02-11T09:12:15;103238.00000000001;;;9.06;96.94
48892;BME280;50130;52.150;5.236;2023-02-11T09:13:51;103244.0;;;9.11;96.88
48892;BME280;50130;52.150;5.236;2023-02-11T09:15:28;103246.0;;;9.38;96.28
48892;BME280;50130;52.150;5.236;2023-02-11T09:18:41;103246.0;;;9.23;96.33
48892;BME280;50130;52.150;5.236;2023-02-11T09:20:17;103245.0;;;9.24;96.15
48892;BME280;50130;52.150;5.236;2023-02-11T09:21:54;103255.0;;;9.41;95.87
48892;BME280;50130;52.150;5.236;2023-02-11T09:23:33;103263.00000000001;;;9.47;95.5
48892;BME280;50130;52.150;5.236;2023-02-11T09:26:48;103255.0;;;9.36;95.61
48892;BME280;50130;52.150;5.236;2023-02-11T09:28:25;103261.99999999999;;;9.56;95.39
48892;BME280;50130;52.150;5.236;2023-02-11T09:30:01;103268.0;;;9.64;94.64
48892;BME280;50130;52.150;5.236;2023-02-11T09:33:14;103259.99999999999;;;9.6;94.78
48892;BME280;50130;52.150;5.236;2023-02-11T09:34:51;103266.00000000001;;;9.64;94.66
48892;BME280;50130;52.150;5.236;2023-02-11T09:36:30;103263.00000000001;;;9.64;94.49
48892;BME280;50130;52.150;5.236;2023-02-11T09:38:06;103267.0;;;9.73;94.38
48892;BME280;50130;52.150;5.236;2023-02-11T09:41:33;103264.00000000001;;;9.76;94.37
48892;BME280;50130;52.150;5.236;2023-02-11T09:43:45;103267.0;;;9.75;94.54
48892;BME280;50130;52.150;5.236;2023-02-11T09:45:24;103270.0;;;9.51;95.29
48892;BME280;50130;52.150;5.236;2023-02-11T09:47:03;103269.0;;;9.65;95.23
48892;BME280;50130;52.150;5.236;2023-02-11T09:48:44;103261.99999999999;;;9.71;94.55
48892;BME280;50130;52.150;5.236;2023-02-11T09:52:07;103264.00000000001;;;9.77;94.33
48892;BME280;50130;52.150;5.236;2023-02-11T09:53:50;103267.0;;;9.91;94.08
48892;BME280;50130;52.150;5.236;2023-02-11T09:55:33;103270.0;;;9.8;93.9
48892;BME280;50130;52.150;5.236;2023-02-11T09:57:10;103277.0;;;9.74;94.38
48892;BME280;50130;52.150;5.236;2023-02-11T10:00:27;103283.99999999999;;;9.78;94.8
48892;BME280;50130;52.150;5.236;2023-02-11T10:02:12;103290.00000000001;;;9.88;94.24
48892;BME280;50130;52.150;5.236;2023-02-11T10:04:00;103294.0;;;9.88;94.13
48892;BME280;50130;52.150;5.236;2023-02-11T10:05:51;103292.0;;;9.89;94.06
48892;BME280;50130;52.150;5.236;2023-02-11T10:07:37;103303.0;;;10.0;94.07
48892;BME280;50130;52.150;5.236;2023-02-11T10:11:33;103304.0;;;9.99;93.9
48892;BME280;50130;52.150;5.236;2023-02-11T10:13:34;103305.0;;;9.94;93.41
48892;BME280;50130;52.150;5.236;2023-02-11T10:15:20;103301.0;;;9.89;93.92
48892;BME280;50130;52.150;5.236;2023-02-11T10:17:12;103306.0;;;10.05;94.06
48892;BME280;50130;52.150;5.236;2023-02-11T10:19:03;103305.0;;;10.26;93.29
48892;BME280;50130;52.150;5.236;2023-02-11T10:21:05;103307.0;;;10.14;93.23
48892;BME280;50130;52.150;5.236;2023-02-11T10:22:51;103313.00000000001;;;10.32;92.89
48892;BME280;50130;52.150;5.236;2023-02-11T10:24:28;103315.00000000001;;;10.22;93.06
48892;BME280;50130;52.150;5.236;2023-02-11T10:27:48;103319.0;;;10.13;93.12
48892;BME280;50130;52.150;5.236;2023-02-11T10:29:34;103318.0;;;10.29;92.72
48892;BME280;50130;52.150;5.236;2023-02-11T10:31:17;103328.0;;;10.38;92.23
48892;BME280;50130;52.150;5.236;2023-02-11T10:32:59;103331.0;;;10.3;92.25
48892;BME280;50130;52.150;5.236;2023-02-11T10:34:40;103327.0;;;10.39;92.45
48892;BME280;50130;52.150;5.236;2023-02-11T10:37:55;103328.0;;;10.47;91.86
48892;BME280;50130;52.150;5.236;2023-02-11T10:39:31;103327.0;;;10.46;91.86
48892;BME280;50130;52.150;5.236;2023-02-11T10:41:08;103338.00000000001;;;10.68;90.79
48892;BME280;50130;52.150;5.236;2023-02-11T10:44:31;103334.99999999999;;;10.45;91.79
48892;BME280;50130;52.150;5.236;2023-02-11T10:46:14;103343.0;;;10.44;91.92
48892;BME280;50130;52.150;5.236;2023-02-11T10:47:54;103333.99999999999;;;10.44;91.97
48892;BME280;50130;52.150;5.236;2023-02-11T10:49:34;103332.0;;;10.54;92.16
48892;BME280;50130;52.150;5.236;2023-02-11T10:53:10;103341.00000000001;;;10.61;92.14
48892;BME280;50130;52.150;5.236;2023-02-11T10:55:08;103338.00000000001;;;10.63;91.46
48892;BME280;50130;52.150;5.236;2023-02-11T10:56:50;103342.0;;;10.72;91.32
48892;BME280;50130;52.150;5.236;2023-02-11T10:58:40;103336.99999999999;;;10.77;90.95
48892;BME280;50130;52.150;5.236;2023-02-11T11:00:26;103331.0;;;10.86;91.13
48892;BME280;50130;52.150;5.236;2023-02-11T11:02:20;103329.0;;;10.95;90.57
48892;BME280;50130;52.150;5.236;2023-02-11T11:03:59;103329.0;;;11.0;89.83
48892;BME280;50130;52.150;5.236;2023-02-11T11:07:24;103324.0;;;10.95;89.37